BAW2065 EGKK-FIMP
Flight info
| Callsign | BAW2065 |
|---|---|
| Flight time | N/A |
| Altitude | 31000 |
| Route | ODVIK2Z ODVIK Y311 DVR UL9 KONAN UL607 KOK DCT REMBA DCT LIRSU DCT KRH DCT KUNOD DCT GEDSO DCT VEKEN DCT MSR DCT PINDO DCT KEA/N0479F330 DCT PAXIS/N0477F350 Y707 OBRAN P557 LOTOB DCT KUNKI P751 LXR M999 JDW G650 RASKA/N0487F340 G650 ASM/N0485F350 UR780 SETIT DCT XADOX DCT DWA N304 AVUSI UN304 APKAK/N0479F360 UN304 DENLI/N0477F370 UN304 MAEVA UL433 APKOT DCT TIBAG TIBAG2E |
| Aircraft | B772/H-SDE1E3FGHIJ3J5J6M1M2P2RWXYZ/LB1D1 |
Departure
| Time | N/A |
|---|---|
| Airport | London Gatwick Airport (EGKK) |
Arrival
| Time | 2026-05-06 08:10 |
|---|---|
| Airport | Sir Seewoosagur Ramgoolam International Airport (FIMP) |
| Time | Latitude | Longitude | Altitude | Speed | Heading |
|---|---|---|---|---|---|
| 2026-05-06 07:35 | -17.93488 | 54.96847 | 37042 ft | 485 kts | 136° |
| 2026-05-06 07:35 | -17.98247 | 55.01889 | 37038 ft | 486 kts | 136° |
| 2026-05-06 07:36 | -18.03005 | 55.06934 | 37042 ft | 486 kts | 136° |
| 2026-05-06 07:36 | -18.07751 | 55.11972 | 37032 ft | 484 kts | 136° |
| 2026-05-06 07:37 | -18.12473 | 55.16990 | 37029 ft | 482 kts | 136° |
| 2026-05-06 07:37 | -18.17176 | 55.21987 | 37037 ft | 480 kts | 136° |
| 2026-05-06 07:38 | -18.21876 | 55.26992 | 37042 ft | 481 kts | 136° |
| 2026-05-06 07:38 | -18.26580 | 55.32000 | 37054 ft | 481 kts | 136° |
| 2026-05-06 07:39 | -18.31292 | 55.37023 | 37055 ft | 483 kts | 136° |
| 2026-05-06 07:39 | -18.36008 | 55.42059 | 37056 ft | 484 kts | 136° |
| 2026-05-06 07:40 | -18.40723 | 55.47128 | 37053 ft | 485 kts | 136° |
| 2026-05-06 07:40 | -18.45440 | 55.52205 | 37051 ft | 485 kts | 136° |
| 2026-05-06 07:41 | -18.50178 | 55.57264 | 37046 ft | 485 kts | 137° |
| 2026-05-06 07:41 | -18.55083 | 55.62145 | 37044 ft | 485 kts | 139° |
| 2026-05-06 07:42 | -18.60028 | 55.66965 | 37051 ft | 484 kts | 139° |
| 2026-05-06 07:42 | -18.64916 | 55.71773 | 37042 ft | 483 kts | 138° |
| 2026-05-06 07:43 | -18.69812 | 55.76628 | 37051 ft | 483 kts | 138° |
| 2026-05-06 07:43 | -18.74694 | 55.81487 | 37046 ft | 482 kts | 138° |
| 2026-05-06 07:44 | -18.79568 | 55.86339 | 37050 ft | 481 kts | 138° |
| 2026-05-06 07:44 | -18.84433 | 55.91183 | 37048 ft | 481 kts | 138° |
| 2026-05-06 07:45 | -18.89290 | 55.96025 | 36901 ft | 481 kts | 138° |
| 2026-05-06 07:45 | -18.91729 | 55.98456 | 36474 ft | 481 kts | 138° |
| 2026-05-06 07:45 | -18.94147 | 56.00868 | 36012 ft | 475 kts | 138° |
| 2026-05-06 07:46 | -18.96539 | 56.03257 | 35523 ft | 472 kts | 138° |
| 2026-05-06 07:46 | -18.98916 | 56.05631 | 35021 ft | 469 kts | 138° |
| 2026-05-06 07:46 | -19.01279 | 56.07992 | 34522 ft | 466 kts | 138° |
| 2026-05-06 07:46 | -19.03626 | 56.10339 | 34019 ft | 463 kts | 138° |
| 2026-05-06 07:47 | -19.05959 | 56.12671 | 33549 ft | 460 kts | 138° |
| 2026-05-06 07:47 | -19.08273 | 56.14986 | 33060 ft | 457 kts | 138° |
| 2026-05-06 07:47 | -19.10573 | 56.17288 | 32579 ft | 454 kts | 138° |
| 2026-05-06 07:47 | -19.12856 | 56.19574 | 32096 ft | 450 kts | 138° |
| 2026-05-06 07:48 | -19.15126 | 56.21847 | 31614 ft | 447 kts | 137° |
| 2026-05-06 07:48 | -19.17376 | 56.24100 | 31135 ft | 445 kts | 137° |
| 2026-05-06 07:48 | -19.19586 | 56.26315 | 30674 ft | 442 kts | 137° |
| 2026-05-06 07:48 | -19.21806 | 56.28540 | 30203 ft | 439 kts | 137° |
| 2026-05-06 07:49 | -19.24015 | 56.30756 | 29722 ft | 436 kts | 137° |
| 2026-05-06 07:49 | -19.26207 | 56.32956 | 29222 ft | 434 kts | 137° |
| 2026-05-06 07:49 | -19.28392 | 56.35149 | 28717 ft | 432 kts | 137° |
| 2026-05-06 07:49 | -19.30566 | 56.37333 | 28202 ft | 430 kts | 137° |
| 2026-05-06 07:50 | -19.32732 | 56.39507 | 27693 ft | 428 kts | 137° |
| 2026-05-06 07:50 | -19.34887 | 56.41673 | 27192 ft | 426 kts | 137° |
| 2026-05-06 07:50 | -19.37029 | 56.43826 | 26679 ft | 424 kts | 137° |
| 2026-05-06 07:50 | -19.39162 | 56.45974 | 26201 ft | 422 kts | 137° |
| 2026-05-06 07:51 | -19.41288 | 56.48112 | 25704 ft | 420 kts | 137° |
| 2026-05-06 07:51 | -19.43402 | 56.50238 | 25211 ft | 418 kts | 137° |
| 2026-05-06 07:51 | -19.45504 | 56.52350 | 24724 ft | 415 kts | 137° |
| 2026-05-06 07:51 | -19.47590 | 56.54453 | 24244 ft | 413 kts | 137° |
| 2026-05-06 07:52 | -19.49669 | 56.56549 | 23758 ft | 411 kts | 137° |
| 2026-05-06 07:52 | -19.51736 | 56.58635 | 23262 ft | 409 kts | 137° |
| 2026-05-06 07:52 | -19.53792 | 56.60709 | 22797 ft | 407 kts | 137° |
| 2026-05-06 07:52 | -19.55840 | 56.62776 | 22323 ft | 406 kts | 137° |
| 2026-05-06 07:53 | -19.57880 | 56.64833 | 21840 ft | 404 kts | 137° |
| 2026-05-06 07:53 | -19.59907 | 56.66881 | 21381 ft | 401 kts | 137° |
| 2026-05-06 07:53 | -19.61924 | 56.68917 | 20908 ft | 399 kts | 137° |
| 2026-05-06 07:53 | -19.63254 | 56.70260 | 20612 ft | 398 kts | 137° |
| 2026-05-06 07:54 | -19.65255 | 56.72280 | 20139 ft | 396 kts | 137° |
| 2026-05-06 07:54 | -19.67246 | 56.74291 | 19677 ft | 394 kts | 136° |
| 2026-05-06 07:54 | -19.69226 | 56.76293 | 19217 ft | 392 kts | 136° |
| 2026-05-06 07:54 | -19.71198 | 56.78288 | 18752 ft | 390 kts | 136° |
| 2026-05-06 07:55 | -19.73816 | 56.80938 | 18131 ft | 388 kts | 136° |
| 2026-05-06 07:55 | -19.75105 | 56.82243 | 17823 ft | 386 kts | 136° |
| 2026-05-06 07:55 | -19.77046 | 56.84209 | 17362 ft | 385 kts | 136° |
| 2026-05-06 07:55 | -19.78978 | 56.86167 | 16900 ft | 383 kts | 136° |
| 2026-05-06 07:56 | -19.80902 | 56.88116 | 16428 ft | 382 kts | 136° |
| 2026-05-06 07:56 | -19.82817 | 56.90057 | 15970 ft | 380 kts | 136° |
| 2026-05-06 07:56 | -19.84729 | 56.91996 | 15507 ft | 379 kts | 136° |
| 2026-05-06 07:56 | -19.86629 | 56.93924 | 15046 ft | 378 kts | 136° |
| 2026-05-06 07:57 | -19.88524 | 56.95846 | 14593 ft | 376 kts | 136° |
| 2026-05-06 07:57 | -19.90411 | 56.97764 | 14117 ft | 375 kts | 135° |
| 2026-05-06 07:57 | -19.92294 | 56.99676 | 13649 ft | 374 kts | 135° |
| 2026-05-06 07:57 | -19.94171 | 57.01583 | 13190 ft | 372 kts | 135° |
| 2026-05-06 07:58 | -19.96039 | 57.03480 | 12706 ft | 371 kts | 135° |
| 2026-05-06 07:58 | -19.97905 | 57.05376 | 12231 ft | 370 kts | 135° |
| 2026-05-06 07:58 | -19.99762 | 57.07264 | 11772 ft | 369 kts | 135° |
| 2026-05-06 07:58 | -20.01609 | 57.09144 | 11307 ft | 367 kts | 135° |
| 2026-05-06 07:59 | -20.03451 | 57.11019 | 10853 ft | 366 kts | 135° |
| 2026-05-06 07:59 | -20.05284 | 57.12884 | 10377 ft | 361 kts | 135° |
| 2026-05-06 07:59 | -20.07015 | 57.14646 | 10186 ft | 337 kts | 135° |
| 2026-05-06 07:59 | -20.08649 | 57.16310 | 10038 ft | 315 kts | 135° |
| 2026-05-06 08:00 | -20.10199 | 57.17890 | 9758 ft | 306 kts | 135° |
| 2026-05-06 08:00 | -20.11739 | 57.19460 | 9403 ft | 307 kts | 135° |
| 2026-05-06 08:00 | -20.13277 | 57.21029 | 9077 ft | 306 kts | 135° |
| 2026-05-06 08:00 | -20.14807 | 57.22590 | 8777 ft | 305 kts | 135° |
| 2026-05-06 08:01 | -20.16330 | 57.24143 | 8485 ft | 303 kts | 135° |
| 2026-05-06 08:01 | -20.17843 | 57.25689 | 8174 ft | 300 kts | 135° |
| 2026-05-06 08:01 | -20.19324 | 57.27200 | 7800 ft | 291 kts | 135° |
| 2026-05-06 08:01 | -20.20670 | 57.28744 | 7415 ft | 278 kts | 126° |
| 2026-05-06 08:02 | -20.21764 | 57.30390 | 7082 ft | 267 kts | 122° |
| 2026-05-06 08:02 | -20.22776 | 57.31996 | 6765 ft | 256 kts | 122° |
| 2026-05-06 08:02 | -20.23762 | 57.33538 | 6396 ft | 248 kts | 123° |
| 2026-05-06 08:02 | -20.24729 | 57.35019 | 6165 ft | 240 kts | 123° |
| 2026-05-06 08:03 | -20.25672 | 57.36447 | 6049 ft | 234 kts | 123° |
| 2026-05-06 08:03 | -20.26606 | 57.37859 | 5921 ft | 233 kts | 123° |
| 2026-05-06 08:03 | -20.27544 | 57.39272 | 5839 ft | 235 kts | 124° |
| 2026-05-06 08:03 | -20.28497 | 57.40689 | 5749 ft | 235 kts | 124° |
| 2026-05-06 08:04 | -20.29453 | 57.42105 | 5616 ft | 234 kts | 124° |
| 2026-05-06 08:04 | -20.30391 | 57.43491 | 5435 ft | 228 kts | 124° |
| 2026-05-06 08:04 | -20.31303 | 57.44843 | 5281 ft | 222 kts | 124° |
| 2026-05-06 08:04 | -20.32196 | 57.46150 | 5042 ft | 214 kts | 123° |
| 2026-05-06 08:05 | -20.32971 | 57.47471 | 4886 ft | 210 kts | 117° |
| 2026-05-06 08:05 | -20.33663 | 57.48860 | 4588 ft | 213 kts | 115° |
| 2026-05-06 08:05 | -20.34338 | 57.50266 | 4243 ft | 211 kts | 116° |
| 2026-05-06 08:05 | -20.34988 | 57.51624 | 3877 ft | 197 kts | 115° |
| 2026-05-06 08:06 | -20.35601 | 57.52905 | 3597 ft | 192 kts | 115° |
| 2026-05-06 08:06 | -20.36205 | 57.54164 | 3320 ft | 193 kts | 117° |
| 2026-05-06 08:06 | -20.36816 | 57.55438 | 2997 ft | 192 kts | 117° |
| 2026-05-06 08:06 | -20.37417 | 57.56689 | 2710 ft | 186 kts | 117° |
| 2026-05-06 08:07 | -20.37989 | 57.57880 | 2431 ft | 176 kts | 116° |
| 2026-05-06 08:07 | -20.38522 | 57.58992 | 2145 ft | 165 kts | 116° |
| 2026-05-06 08:07 | -20.39034 | 57.60053 | 1931 ft | 159 kts | 116° |
| 2026-05-06 08:07 | -20.39522 | 57.61071 | 1692 ft | 148 kts | 116° |
| 2026-05-06 08:08 | -20.39973 | 57.62011 | 1477 ft | 139 kts | 116° |
| 2026-05-06 08:08 | -20.40413 | 57.62927 | 1268 ft | 139 kts | 115° |
| 2026-05-06 08:08 | -20.40851 | 57.63844 | 1034 ft | 139 kts | 116° |
| 2026-05-06 08:08 | -20.41293 | 57.64758 | 815 ft | 138 kts | 116° |
| 2026-05-06 08:09 | -20.41731 | 57.65673 | 621 ft | 139 kts | 116° |
| 2026-05-06 08:09 | -20.42174 | 57.66589 | 376 ft | 139 kts | 116° |
| 2026-05-06 08:09 | -20.42613 | 57.67507 | 199 ft | 137 kts | 116° |
| 2026-05-06 08:09 | -20.43002 | 57.68312 | 187 ft | 105 kts | 117° |
| 2026-05-06 08:10 | -20.43281 | 57.68888 | 169 ft | 69 kts | 117° |
| 2026-05-06 08:10 | -20.43471 | 57.69280 | 144 ft | 28 kts | 117° |
| 2026-05-06 08:10 | -20.43532 | 57.69370 | 139 ft | 9 kts | 163° |
| 2026-05-06 08:10 | -20.43594 | 57.69351 | 142 ft | 9 kts | 206° |
| 2026-05-06 08:11 | -20.43650 | 57.69316 | 150 ft | 9 kts | 228° |
| 2026-05-06 08:11 | -20.43648 | 57.69250 | 157 ft | 9 kts | 295° |
| 2026-05-06 08:11 | -20.43614 | 57.69177 | 163 ft | 19 kts | 296° |
| 2026-05-06 08:11 | -20.43542 | 57.69026 | 174 ft | 23 kts | 297° |
| 2026-05-06 08:12 | -20.43469 | 57.68873 | 177 ft | 23 kts | 297° |
| 2026-05-06 08:12 | -20.43397 | 57.68721 | 180 ft | 23 kts | 298° |
| 2026-05-06 08:12 | -20.43322 | 57.68569 | 182 ft | 23 kts | 297° |
| 2026-05-06 08:12 | -20.43248 | 57.68417 | 184 ft | 23 kts | 297° |
| 2026-05-06 08:13 | -20.43175 | 57.68268 | 189 ft | 20 kts | 297° |
| 2026-05-06 08:13 | -20.43123 | 57.68156 | 190 ft | 12 kts | 285° |
| 2026-05-06 08:13 | -20.43153 | 57.68090 | 191 ft | 10 kts | 246° |
| 2026-05-06 08:13 | -20.43142 | 57.68018 | 191 ft | 10 kts | 296° |
| 2026-05-06 08:14 | -20.43111 | 57.67952 | 191 ft | 10 kts | 296° |
| 2026-05-06 08:14 | -20.43111 | 57.67892 | 191 ft | 8 kts | 235° |
| 2026-05-06 08:14 | -20.43150 | 57.67860 | 191 ft | 5 kts | 211° |
| 2026-05-06 08:14 | -20.43166 | 57.67850 | 191 ft | 0 kts | 210° |